Time;durP1;ratioP1;P1;durP2;ratioP2;P2;SDS_P1;SDS_P2;PMS_P1;PMS_P2;Temp;Humidity;BMP_temperature;BMP_pressure;BME280_temperature;BME280_humidity;BME280_pressure;Samples;Min_cycle;Max_cycle;Signal;HPM_P1;HPM_P2
2021/04/15 00:00:25;;;;;;;5.10;4.60;;;7.80;50.60;;;;;;5026003;28;21001;-50
2021/04/15 00:02:51;;;;;;;5.40;4.80;;;7.70;50.70;;;;;;5019870;28;20200;-50
2021/04/15 00:05:28;;;;;;;6.80;5.77;;;7.70;50.80;;;;;;5022399;28;20428;-49
2021/04/15 00:07:55;;;;;;;7.90;6.07;;;7.70;50.60;;;;;;5027676;28;20208;-48
2021/04/15 00:10:30;;;;;;;8.80;5.60;;;7.70;50.70;;;;;;5026741;28;20527;-45
2021/04/15 00:12:56;;;;;;;7.43;5.60;;;7.60;50.50;;;;;;5031062;28;20553;-47
2021/04/15 00:15:22;;;;;;;7.00;5.13;;;7.60;50.60;;;;;;5027463;28;20849;-49
2021/04/15 00:17:47;;;;;;;10.43;5.10;;;7.50;50.60;;;;;;5028576;28;20474;-48
2021/04/15 00:20:14;;;;;;;6.97;5.10;;;7.50;50.80;;;;;;5025256;28;20197;-47
2021/04/15 00:22:40;;;;;;;6.47;4.80;;;7.50;50.70;;;;;;5029653;28;20229;-50
2021/04/15 00:25:06;;;;;;;5.60;5.03;;;7.40;50.60;;;;;;5028538;28;20448;-49
2021/04/15 00:27:32;;;;;;;6.13;4.83;;;7.40;50.60;;;;;;5027417;28;20620;-44
2021/04/15 00:29:57;;;;;;;6.07;5.47;;;7.40;50.50;;;;;;5023099;28;20512;-49
2021/04/15 00:32:23;;;;;;;7.43;5.77;;;7.30;50.60;;;;;;5027949;28;20193;-49
2021/04/15 00:34:49;;;;;;;5.80;4.97;;;7.20;51.00;;;;;;5025436;28;20230;-48
2021/04/15 00:37:14;;;;;;;6.17;5.57;;;7.20;51.40;;;;;;5029539;28;20201;-44
2021/04/15 00:39:40;;;;;;;6.30;5.67;;;7.20;51.80;;;;;;5023508;28;21031;-45
2021/04/15 00:42:06;;;;;;;5.93;5.33;;;7.10;51.80;;;;;;5008197;28;20206;-48
2021/04/15 00:44:31;;;;;;;7.97;6.47;;;7.10;51.70;;;;;;5022979;28;20232;-49
2021/04/15 00:47:03;;;;;;;13.57;6.90;;;7.00;51.70;;;;;;5026087;28;20528;-45
2021/04/15 00:49:40;;;;;;;9.53;6.20;;;7.00;52.30;;;;;;5025313;28;20197;-48
2021/04/15 00:52:11;;;;;;;6.30;5.70;;;7.00;52.60;;;;;;5027631;28;20531;-48
2021/04/15 00:54:47;;;;;;;6.60;5.60;;;7.00;52.50;;;;;;5021529;28;20850;-49
2021/04/15 00:57:20;;;;;;;8.63;5.93;;;7.00;52.20;;;;;;5029728;28;20439;-48
2021/04/15 00:59:46;;;;;;;7.67;6.53;;;6.90;52.60;;;;;;5026336;28;20436;-48
2021/04/15 01:02:15;;;;;;;7.33;5.80;;;6.90;52.50;;;;;;5014738;28;20440;-47
2021/04/15 01:04:41;;;;;;;7.90;6.30;;;7.00;52.60;;;;;;5024784;28;20444;-49
2021/04/15 01:07:08;;;;;;;6.53;5.70;;;7.00;52.50;;;;;;5025769;28;20458;-48
2021/04/15 01:09:33;;;;;;;8.20;6.83;;;7.00;52.30;;;;;;5027223;28;20520;-49
2021/04/15 01:12:45;;;;;;;7.63;6.20;;;6.80;52.80;;;;;;5024759;28;20531;-48
2021/04/15 01:15:16;;;;;;;9.07;7.60;;;6.80;52.90;;;;;;4986264;28;20234;-46
2021/04/15 01:17:54;;;;;;;8.07;7.20;;;6.80;52.70;;;;;;5012698;28;20478;-46
2021/04/15 01:20:58;;;;;;;7.50;6.70;;;6.70;53.00;;;;;;5027803;28;20431;-47
2021/04/15 01:23:59;;;;;;;8.47;6.67;;;6.70;52.80;;;;;;5023122;28;20443;-47
2021/04/15 01:26:46;;;;;;;9.50;7.27;;;6.70;52.70;;;;;;5021348;28;20538;-49
2021/04/15 01:29:38;;;;;;;9.50;7.50;;;6.70;52.50;;;;;;5016909;28;20474;-50
2021/04/15 01:32:24;;;;;;;9.63;8.13;;;6.60;52.70;;;;;;5019655;28;20810;-50
2021/04/15 01:35:08;;;;;;;8.90;7.80;;;6.70;52.70;;;;;;5020691;28;20557;-48
2021/04/15 01:37:55;;;;;;;9.10;7.20;;;6.70;52.50;;;;;;5021357;28;20445;-46
2021/04/15 01:40:30;;;;;;;10.77;7.17;;;6.70;52.30;;;;;;5026990;28;20428;-48
2021/04/15 01:43:10;;;;;;;8.43;7.20;;;6.80;52.00;;;;;;5021813;28;20432;-46
2021/04/15 01:45:36;;;;;;;7.87;6.60;;;6.80;51.90;;;;;;5020400;28;20455;-46
2021/04/15 01:48:14;;;;;;;8.70;7.80;;;6.70;51.70;;;;;;5023310;28;20433;-48
2021/04/15 01:50:53;;;;;;;9.30;7.93;;;6.70;51.80;;;;;;5029210;28;20436;-48
2021/04/15 01:53:29;;;;;;;8.03;7.23;;;6.50;52.20;;;;;;5025659;28;20497;-49
2021/04/15 01:56:07;;;;;;;8.00;7.10;;;6.50;52.50;;;;;;5017738;28;20444;-48
2021/04/15 01:58:59;;;;;;;8.10;7.30;;;6.50;52.50;;;;;;5020288;28;20458;-48
2021/04/15 02:01:26;;;;;;;9.37;7.43;;;6.50;52.30;;;;;;5007833;28;20482;-47
2021/04/15 02:03:58;;;;;;;8.60;6.43;;;6.50;52.30;;;;;;5021123;28;20511;-49
2021/04/15 02:06:28;;;;;;;9.20;7.17;;;6.50;52.20;;;;;;5036772;28;20521;-49
2021/04/15 02:09:00;;;;;;;8.53;7.00;;;6.50;52.00;;;;;;5021701;28;20439;-46
2021/04/15 02:11:38;;;;;;;8.87;7.27;;;6.50;52.10;;;;;;5019577;28;20451;-48
2021/04/15 02:14:05;;;;;;;8.03;7.23;;;6.40;52.50;;;;;;5019285;28;20887;-49
2021/04/15 02:16:34;;;;;;;7.90;7.10;;;6.40;52.50;;;;;;5027165;28;20442;-46
2021/04/15 02:19:07;;;;;;;10.87;8.17;;;6.10;53.30;;;;;;5026328;28;20475;-48
2021/04/15 02:21:45;;;;;;;10.50;7.73;;;6.00;53.50;;;;;;5021831;28;20828;-47
2021/04/15 02:24:35;;;;;;;9.90;7.40;;;5.90;53.80;;;;;;5024276;28;20444;-45
2021/04/15 02:27:11;;;;;;;9.17;7.70;;;5.90;53.90;;;;;;5022509;28;20451;-48
2021/04/15 02:29:43;;;;;;;8.27;7.40;;;6.00;53.70;;;;;;5027832;28;20443;-45
2021/04/15 02:32:31;;;;;;;8.37;6.80;;;6.00;53.20;;;;;;5016583;28;20435;-45
2021/04/15 02:35:02;;;;;;;8.80;7.87;;;5.90;53.20;;;;;;5030095;28;20487;-46
2021/04/15 02:37:55;;;;;;;7.57;6.80;;;5.90;53.10;;;;;;5018459;28;20790;-46
2021/04/15 02:40:28;;;;;;;8.40;7.57;;;6.00;52.90;;;;;;5015216;28;20459;-47
2021/04/15 02:42:58;;;;;;;8.90;7.60;;;5.90;52.60;;;;;;5026211;28;20440;-48
2021/04/15 02:45:34;;;;;;;10.30;8.57;;;5.80;52.70;;;;;;5026489;28;20465;-48
2021/04/15 02:48:23;;;;;;;10.97;8.67;;;5.80;52.80;;;;;;5027313;28;20883;-48
2021/04/15 02:50:51;;;;;;;11.50;8.77;;;5.80;52.90;;;;;;5028399;28;20437;-45
2021/04/15 02:53:22;;;;;;;10.60;7.67;;;5.60;52.90;;;;;;5018627;28;20429;-46
2021/04/15 02:55:55;;;;;;;9.03;8.03;;;5.20;54.20;;;;;;5026282;28;20832;-45
2021/04/15 02:58:40;;;;;;;14.63;9.07;;;5.20;54.70;;;;;;5030649;28;20935;-47
2021/04/15 03:01:08;;;;;;;12.93;8.07;;;5.10;54.70;;;;;;5023749;28;20954;-45
2021/04/15 03:03:36;;;;;;;25.47;8.67;;;5.10;55.10;;;;;;5028487;28;20432;-50
2021/04/15 03:06:09;;;;;;;8.30;7.37;;;5.20;55.20;;;;;;5024203;28;20448;-49
2021/04/15 03:08:37;;;;;;;10.17;7.63;;;5.30;55.00;;;;;;5022087;28;20440;-50
2021/04/15 03:11:16;;;;;;;9.97;7.70;;;5.20;55.00;;;;;;5031962;28;20479;-47
2021/04/15 03:13:48;;;;;;;15.90;7.53;;;5.20;55.10;;;;;;5032653;28;20471;-47
2021/04/15 03:16:17;;;;;;;11.80;8.43;;;5.30;54.90;;;;;;5033382;28;20855;-45
2021/04/15 03:18:49;;;;;;;24.50;8.77;;;5.30;54.80;;;;;;5024191;28;20468;-49
2021/04/15 03:21:26;;;;;;;11.20;7.90;;;5.20;54.90;;;;;;5021473;28;20424;-47
2021/04/15 03:23:58;;;;;;;57.17;10.33;;;5.20;55.10;;;;;;5026566;28;20442;-48
2021/04/15 03:26:44;;;;;;;17.27;8.50;;;5.30;55.20;;;;;;5024345;28;20486;-47
2021/04/15 03:29:29;;;;;;;21.10;10.00;;;5.30;55.20;;;;;;5020770;28;20449;-48
2021/04/15 03:32:09;;;;;;;28.20;8.83;;;5.30;55.20;;;;;;5020816;28;20866;-46
2021/04/15 03:35:09;;;;;;;25.60;9.30;;;5.30;55.20;;;;;;5025819;28;20494;-45
2021/04/15 03:37:46;;;;;;;53.73;10.83;;;5.20;55.30;;;;;;5031140;28;20444;-49
2021/04/15 03:40:15;;;;;;;20.50;8.80;;;5.20;55.60;;;;;;5027745;28;20503;-45
2021/04/15 03:42:46;;;;;;;12.50;8.70;;;5.10;56.10;;;;;;5031029;28;20436;-47
2021/04/15 03:45:43;;;;;;;14.80;9.53;;;5.20;56.40;;;;;;5027775;28;20456;-47
2021/04/15 03:48:14;;;;;;;21.33;10.33;;;5.20;56.80;;;;;;4975105;28;20460;-46
2021/04/15 03:51:01;;;;;;;14.17;9.87;;;5.20;56.10;;;;;;5030415;28;20524;-47
2021/04/15 03:53:33;;;;;;;9.50;8.10;;;5.30;55.90;;;;;;5021002;28;20477;-46
2021/04/15 03:56:03;;;;;;;13.83;9.77;;;5.30;55.90;;;;;;5032816;28;20478;-49
2021/04/15 03:58:36;;;;;;;79.90;10.47;;;5.40;55.80;;;;;;5027474;28;20432;-44
2021/04/15 04:01:07;;;;;;;30.37;9.37;;;4.90;55.40;;;;;;5027909;28;20435;-46
2021/04/15 04:03:36;;;;;;;13.63;7.87;;;4.80;56.80;;;;;;5020732;28;20428;-44
2021/04/15 04:06:18;;;;;;;12.47;8.93;;;4.90;57.50;;;;;;5033704;28;20906;-43
2021/04/15 04:09:04;;;;;;;12.23;8.60;;;5.40;60.10;;;;;;5019465;28;20558;-44
2021/04/15 04:11:33;;;;;;;15.33;10.47;;;6.10;60.60;;;;;;5026049;28;20533;-43
2021/04/15 04:14:24;;;;;;;14.60;9.03;;;6.70;59.50;;;;;;5024273;28;20488;-45
2021/04/15 04:16:59;;;;;;;13.73;11.13;;;7.10;57.40;;;;;;5012279;28;20876;-45
2021/04/15 04:19:35;;;;;;;12.67;8.43;;;7.40;55.60;;;;;;5027107;28;20860;-45
2021/04/15 04:22:16;;;;;;;12.03;8.80;;;7.70;55.60;;;;;;5029309;28;20536;-47
2021/04/15 04:24:44;;;;;;;20.33;8.27;;;8.00;53.70;;;;;;5027320;28;20589;-45
2021/04/15 04:27:18;;;;;;;28.40;8.47;;;8.10;52.30;;;;;;5022793;28;20487;-47
2021/04/15 04:30:15;;;;;;;55.87;9.90;;;8.20;51.10;;;;;;5015765;28;20527;-43
2021/04/15 04:32:41;;;;;;;12.00;8.47;;;8.10;50.30;;;;;;5022854;28;20455;-47
2021/04/15 04:35:12;;;;;;;21.90;8.57;;;8.00;50.50;;;;;;5026665;28;20583;-44
2021/04/15 04:37:44;;;;;;;8.63;7.47;;;8.00;50.50;;;;;;5031520;28;20455;-48
2021/04/15 04:40:35;;;;;;;44.77;9.33;;;8.10;50.00;;;;;;5029408;28;21214;-44
2021/04/15 04:43:11;;;;;;;12.20;8.63;;;8.10;49.60;;;;;;5022399;28;20429;-44
2021/04/15 04:45:38;;;;;;;30.97;9.30;;;8.00;49.60;;;;;;5030467;28;20428;-45
2021/04/15 04:48:26;;;;;;;35.23;10.23;;;8.10;49.40;;;;;;5030347;28;20447;-44
2021/04/15 04:51:00;;;;;;;17.50;8.03;;;8.00;49.30;;;;;;5020697;28;20440;-49
2021/04/15 04:53:37;;;;;;;16.17;7.40;;;8.00;49.10;;;;;;5030376;28;20427;-45
2021/04/15 04:56:18;;;;;;;44.73;8.93;;;8.00;49.20;;;;;;5031238;28;20450;-45
2021/04/15 04:58:49;;;;;;;12.80;7.37;;;8.10;48.60;;;;;;5030987;28;20539;-46
2021/04/15 05:01:15;;;;;;;8.70;7.10;;;8.00;48.40;;;;;;5030534;28;20531;-44
2021/04/15 05:03:41;;;;;;;11.97;7.53;;;8.00;48.30;;;;;;5008889;28;20526;-46
2021/04/15 05:06:19;;;;;;;11.30;7.40;;;8.00;48.80;;;;;;5018266;28;20252;-45
2021/04/15 05:08:50;;;;;;;16.93;8.83;;;8.00;49.40;;;;;;5017377;28;20193;-44
2021/04/15 05:11:16;;;;;;;17.27;8.73;;;8.10;49.80;;;;;;5024650;28;20440;-44
2021/04/15 05:13:42;;;;;;;15.50;9.30;;;8.30;49.80;;;;;;5025743;28;20463;-47
2021/04/15 05:16:08;;;;;;;12.47;8.10;;;8.40;49.30;;;;;;5021785;28;20480;-44
2021/04/15 05:18:35;;;;;;;27.30;10.40;;;8.40;49.20;;;;;;5021730;28;21006;-46
2021/04/15 05:21:24;;;;;;;30.33;10.17;;;8.50;49.10;;;;;;5018796;28;20654;-45
2021/04/15 05:23:56;;;;;;;11.60;8.53;;;8.50;48.60;;;;;;5020655;28;20444;-45
2021/04/15 05:26:25;;;;;;;9.63;8.63;;;8.40;48.70;;;;;;5031155;28;20981;-44
2021/04/15 05:28:54;;;;;;;15.93;8.43;;;8.40;48.90;;;;;;5021707;28;20444;-45
2021/04/15 05:31:22;;;;;;;13.67;9.60;;;8.20;48.50;;;;;;5025755;28;20804;-45
2021/04/15 05:33:49;;;;;;;26.70;9.93;;;8.30;49.10;;;;;;5028386;28;20478;-44
2021/04/15 05:36:23;;;;;;;20.00;9.67;;;8.30;49.00;;;;;;5022946;28;20443;-46
2021/04/15 05:38:52;;;;;;;9.40;7.10;;;8.40;48.80;;;;;;5030942;28;20787;-48
2021/04/15 05:41:41;;;;;;;11.57;9.07;;;8.30;48.60;;;;;;5021120;28;21175;-44
2021/04/15 05:44:20;;;;;;;18.53;8.70;;;8.30;48.80;;;;;;5028548;28;20436;-46
2021/04/15 05:46:49;;;;;;;10.43;8.03;;;8.30;48.60;;;;;;5028961;28;20479;-46
2021/04/15 05:49:44;;;;;;;20.53;9.50;;;8.20;48.30;;;;;;5028742;28;20793;-46
2021/04/15 05:52:29;;;;;;;22.90;10.53;;;8.10;48.50;;;;;;5030617;28;20991;-45
2021/04/15 05:54:59;;;;;;;14.10;10.73;;;8.00;48.40;;;;;;5035518;28;20569;-44
2021/04/15 05:57:30;;;;;;;17.97;9.93;;;7.90;48.70;;;;;;5019867;28;20429;-46
2021/04/15 06:00:03;;;;;;;12.13;8.87;;;7.80;49.20;;;;;;5023343;28;20436;-44
2021/04/15 06:02:38;;;;;;;54.00;10.50;;;7.80;49.20;;;;;;5020150;28;20437;-45
2021/04/15 06:05:26;;;;;;;30.10;11.57;;;7.90;49.70;;;;;;5029910;28;20451;-45
2021/04/15 06:07:56;;;;;;;27.60;10.37;;;7.90;48.90;;;;;;5023288;28;20792;-46
2021/04/15 06:10:26;;;;;;;20.30;9.67;;;7.80;49.00;;;;;;5019727;28;20436;-44
2021/04/15 06:13:24;;;;;;;19.03;10.77;;;7.90;49.70;;;;;;5030872;28;20845;-44
2021/04/15 06:15:52;;;;;;;21.20;11.03;;;8.00;49.70;;;;;;5005338;28;20559;-48
2021/04/15 06:18:27;;;;;;;17.07;10.90;;;8.00;49.70;;;;;;5014935;28;20480;-46
2021/04/15 06:21:13;;;;;;;15.00;10.77;;;8.10;49.50;;;;;;5024788;28;20464;-45
2021/04/15 06:23:49;;;;;;;11.63;8.73;;;8.30;50.00;;;;;;5025398;28;20511;-45
2021/04/15 06:26:27;;;;;;;13.03;10.63;;;8.40;49.80;;;;;;5027180;28;20431;-44
2021/04/15 06:28:56;;;;;;;18.10;10.23;;;8.50;49.70;;;;;;5015808;28;20441;-46
2021/04/15 06:31:27;;;;;;;16.93;11.13;;;8.60;49.70;;;;;;5019273;28;20471;-44
2021/04/15 06:34:01;;;;;;;13.33;10.67;;;8.60;49.00;;;;;;5031313;28;20476;-45
2021/04/15 06:37:00;;;;;;;17.23;12.37;;;8.70;49.00;;;;;;5022805;28;20455;-48
2021/04/15 06:39:55;;;;;;;11.67;10.00;;;8.70;49.10;;;;;;5024935;28;20459;-44
2021/04/15 06:42:31;;;;;;;15.60;10.90;;;8.80;49.00;;;;;;5016786;28;20451;-44
2021/04/15 06:45:02;;;;;;;14.93;13.33;;;8.90;48.90;;;;;;5022027;28;20433;-46
2021/04/15 06:47:58;;;;;;;13.50;10.93;;;8.90;49.10;;;;;;5018022;28;20498;-44
2021/04/15 06:50:37;;;;;;;17.73;11.80;;;8.90;48.90;;;;;;5030613;28;20920;-47
2021/04/15 06:53:27;;;;;;;15.93;11.83;;;9.00;49.10;;;;;;5031286;28;20522;-46
2021/04/15 06:56:22;;;;;;;14.73;11.50;;;8.90;48.90;;;;;;5030562;28;20440;-45
2021/04/15 06:58:59;;;;;;;14.43;12.87;;;9.10;49.50;;;;;;5024737;28;20456;-49
2021/04/15 07:01:54;;;;;;;16.17;12.10;;;9.10;48.80;;;;;;5030605;28;20459;-45
2021/04/15 07:04:28;;;;;;;16.60;13.37;;;9.10;49.10;;;;;;5020558;28;20513;-48
2021/04/15 07:07:28;;;;;;;14.67;13.10;;;9.10;48.60;;;;;;5030351;28;20463;-46
2021/04/15 07:10:32;;;;;;;16.13;13.73;;;9.20;49.00;;;;;;5027447;28;20499;-44
2021/04/15 07:13:26;;;;;;;17.17;13.87;;;9.50;48.90;;;;;;5028872;28;20787;-46
2021/04/15 07:16:19;;;;;;;17.93;15.67;;;9.80;49.00;;;;;;5017238;28;20444;-44
2021/04/15 07:19:19;;;;;;;15.30;13.70;;;9.90;49.50;;;;;;5020810;28;20479;-48
2021/04/15 07:22:03;;;;;;;14.97;13.33;;;10.20;48.30;;;;;;5030192;28;20530;-45
2021/04/15 07:24:55;;;;;;;16.70;13.97;;;10.50;47.80;;;;;;5031106;28;20440;-48
2021/04/15 07:27:41;;;;;;;16.20;11.20;;;10.70;47.70;;;;;;5030162;28;20435;-49
2021/04/15 07:30:18;;;;;;;13.67;12.17;;;10.90;47.10;;;;;;5030365;28;20484;-48
2021/04/15 07:33:02;;;;;;;12.67;9.07;;;11.00;46.90;;;;;;5023668;28;20519;-44
2021/04/15 07:35:47;;;;;;;11.00;7.97;;;11.20;46.30;;;;;;5030614;28;20491;-47
2021/04/15 07:38:30;;;;;;;10.50;8.70;;;11.50;45.70;;;;;;5030431;28;20438;-45
2021/04/15 07:41:25;;;;;;;9.63;8.63;;;11.70;45.80;;;;;;5028088;28;20428;-49
2021/04/15 07:44:07;;;;;;;7.10;6.37;;;11.90;45.00;;;;;;5017797;28;20436;-46
2021/04/15 07:47:10;;;;;;;7.70;6.90;;;11.90;43.60;;;;;;5029856;28;20526;-46
2021/04/15 07:49:47;;;;;;;7.73;6.93;;;12.00;43.50;;;;;;5020444;28;20447;-48
2021/04/15 07:52:31;;;;;;;8.17;6.90;;;12.20;42.90;;;;;;5032578;28;20424;-47
2021/04/15 07:55:32;;;;;;;5.67;5.17;;;12.30;42.60;;;;;;5033883;28;21009;-45
2021/04/15 07:58:36;;;;;;;5.50;4.97;;;12.40;42.10;;;;;;5033427;28;20852;-50
2021/04/15 08:01:31;;;;;;;5.90;5.30;;;12.50;40.90;;;;;;5025221;28;20436;-48
2021/04/15 08:04:03;;;;;;;8.67;5.87;;;12.70;41.90;;;;;;5034121;28;20434;-47
2021/04/15 08:07:00;;;;;;;8.53;6.37;;;12.80;41.30;;;;;;5024853;28;20421;-48
2021/04/15 08:09:26;;;;;;;7.60;5.60;;;12.90;40.60;;;;;;5034161;28;20855;-49
2021/04/15 08:12:15;;;;;;;5.40;4.23;;;12.90;40.50;;;;;;5023099;28;20600;-45
2021/04/15 08:15:03;;;;;;;5.40;4.17;;;13.00;39.40;;;;;;5023855;28;20316;-46
2021/04/15 08:17:52;;;;;;;5.73;4.50;;;13.00;38.30;;;;;;5019311;28;20490;-47
2021/04/15 08:20:33;;;;;;;5.50;5.00;;;13.10;37.90;;;;;;5025309;28;20447;-44
2021/04/15 08:23:16;;;;;;;6.13;4.67;;;13.10;38.50;;;;;;5027797;28;20428;-45
2021/04/15 08:26:17;;;;;;;5.60;5.10;;;13.20;38.10;;;;;;5025692;28;20494;-46
2021/04/15 08:28:56;;;;;;;7.70;5.60;;;13.30;38.80;;;;;;5020223;28;20451;-46
2021/04/15 08:31:47;;;;;;;7.83;4.80;;;13.40;38.90;;;;;;5015405;28;20495;-46
2021/04/15 08:34:47;;;;;;;8.13;4.77;;;13.60;38.40;;;;;;5026385;28;20972;-43
2021/04/15 08:37:40;;;;;;;6.73;5.77;;;13.70;38.90;;;;;;5022414;28;20440;-44
2021/04/15 08:40:25;;;;;;;8.80;5.10;;;13.70;38.60;;;;;;5021989;28;20452;-43
2021/04/15 08:43:28;;;;;;;7.33;5.57;;;13.60;39.10;;;;;;5019630;28;20444;-43
2021/04/15 08:46:10;;;;;;;5.73;5.17;;;13.50;39.10;;;;;;5020238;28;20447;-44
2021/04/15 08:48:36;;;;;;;6.77;5.60;;;13.50;39.10;;;;;;5020932;28;20452;-43
2021/04/15 08:51:39;;;;;;;5.97;5.37;;;13.40;40.30;;;;;;5025632;28;20452;-44
2021/04/15 08:54:36;;;;;;;7.53;5.97;;;13.70;39.10;;;;;;5018848;28;20483;-44
2021/04/15 08:57:20;;;;;;;6.20;5.60;;;14.00;38.80;;;;;;5022735;28;20451;-45
2021/04/15 09:00:05;;;;;;;8.07;5.73;;;14.20;37.70;;;;;;5017600;28;20432;-46
2021/04/15 09:03:01;;;;;;;6.63;5.93;;;14.40;38.20;;;;;;5025408;28;20436;-51
2021/04/15 09:05:51;;;;;;;5.90;5.33;;;14.40;37.00;;;;;;5020100;28;20781;-46
2021/04/15 09:08:24;;;;;;;11.43;6.17;;;14.40;37.10;;;;;;5024288;28;20439;-44
2021/04/15 09:11:20;;;;;;;7.30;5.73;;;14.50;36.70;;;;;;5033103;28;20907;-45
2021/04/15 09:14:04;;;;;;;7.57;6.83;;;14.60;37.00;;;;;;5032275;28;20527;-48
2021/04/15 09:16:32;;;;;;;7.30;5.60;;;14.90;36.90;;;;;;5027200;28;20437;-44
2021/04/15 09:19:19;;;;;;;4.90;4.27;;;15.00;35.40;;;;;;5019396;28;20893;-45
2021/04/15 09:22:22;;;;;;;6.77;6.10;;;15.20;34.50;;;;;;5023660;28;20456;-46
2021/04/15 09:25:05;;;;;;;10.00;8.73;;;15.40;34.10;;;;;;5022902;28;20438;-45
2021/04/15 09:27:52;;;;;;;11.27;9.17;;;15.30;33.20;;;;;;5022053;28;20829;-44
2021/04/15 09:30:27;;;;;;;9.60;6.10;;;15.20;33.00;;;;;;5019713;28;20435;-46
2021/04/15 09:33:23;;;;;;;4.63;3.97;;;15.00;32.40;;;;;;5017030;28;20440;-48
2021/04/15 09:36:13;;;;;;;6.80;4.77;;;14.90;32.40;;;;;;5020175;28;20522;-45
2021/04/15 09:38:59;;;;;;;6.10;5.17;;;14.70;33.00;;;;;;5020145;28;20452;-46
2021/04/15 09:42:01;;;;;;;15.13;12.10;;;14.60;33.00;;;;;;5025492;28;20602;-43
2021/04/15 09:44:57;;;;;;;9.03;5.70;;;14.50;33.30;;;;;;5022828;28;20470;-47
2021/04/15 09:47:54;;;;;;;5.37;4.00;;;14.60;35.30;;;;;;5018370;28;20476;-46
2021/04/15 09:50:23;;;;;;;4.63;3.70;;;14.80;34.20;;;;;;5030003;28;20462;-45
2021/04/15 09:53:13;;;;;;;5.10;4.60;;;15.00;32.30;;;;;;5018624;28;20557;-46
2021/04/15 09:56:05;;;;;;;5.57;4.70;;;15.20;33.10;;;;;;5017284;28;20472;-47
2021/04/15 09:58:40;;;;;;;4.30;3.90;;;15.70;33.20;;;;;;5023970;28;20440;-47
2021/04/15 10:01:15;;;;;;;4.27;3.37;;;16.00;31.80;;;;;;5023570;28;20804;-45
2021/04/15 10:04:00;;;;;;;5.77;4.40;;;16.00;31.10;;;;;;5029309;28;20505;-44
2021/04/15 10:06:38;;;;;;;4.40;4.00;;;16.30;34.90;;;;;;5026610;28;20444;-45
2021/04/15 10:09:31;;;;;;;7.00;4.10;;;16.60;33.70;;;;;;5019763;28;20443;-44
2021/04/15 10:12:28;;;;;;;4.20;3.83;;;16.80;33.00;;;;;;5018286;28;20440;-48
2021/04/15 10:15:09;;;;;;;5.47;4.10;;;16.90;32.80;;;;;;5028252;28;20492;-46
2021/04/15 10:18:05;;;;;;;7.00;5.50;;;16.90;32.70;;;;;;5024892;28;20476;-49
2021/04/15 10:20:49;;;;;;;8.90;5.10;;;16.70;32.10;;;;;;5013462;28;20528;-47
2021/04/15 10:23:52;;;;;;;6.77;4.87;;;16.40;32.00;;;;;;5017170;28;20448;-48
2021/04/15 10:26:34;;;;;;;4.80;3.43;;;16.30;32.60;;;;;;5015444;28;20447;-46
2021/04/15 10:29:45;;;;;;;4.50;3.87;;;16.30;32.60;;;;;;5023596;28;20436;-48
2021/04/15 10:32:42;;;;;;;3.47;3.03;;;16.00;33.40;;;;;;5020470;28;20441;-46
2021/04/15 10:35:26;;;;;;;6.07;3.23;;;15.30;31.70;;;;;;5012999;28;20580;-45
2021/04/15 10:38:16;;;;;;;5.13;3.30;;;15.40;31.70;;;;;;5013099;28;20433;-45
2021/04/15 10:41:06;;;;;;;4.27;3.97;;;15.60;33.00;;;;;;5019766;28;20439;-48
2021/04/15 10:43:47;;;;;;;11.40;7.40;;;15.50;33.60;;;;;;5017140;28;20433;-44
2021/04/15 10:46:37;;;;;;;5.80;4.30;;;15.60;34.30;;;;;;5020103;28;20433;-46
2021/04/15 10:49:12;;;;;;;6.43;3.97;;;15.80;36.70;;;;;;5028875;28;20733;-45
2021/04/15 10:51:50;;;;;;;5.37;4.20;;;15.80;36.60;;;;;;5030675;28;20423;-45
2021/04/15 10:54:30;;;;;;;4.23;3.93;;;15.80;35.30;;;;;;5021527;28;20483;-45
2021/04/15 10:57:01;;;;;;;5.40;3.67;;;16.10;35.70;;;;;;5025682;28;20454;-45
2021/04/15 10:59:36;;;;;;;4.00;3.60;;;16.20;35.50;;;;;;5027090;28;20518;-44
2021/04/15 11:02:46;;;;;;;3.70;2.80;;;16.50;34.60;;;;;;5027259;28;20489;-45
2021/04/15 11:05:40;;;;;;;4.10;3.00;;;16.60;35.00;;;;;;5026574;28;20448;-45
2021/04/15 11:08:10;;;;;;;4.27;3.13;;;16.50;35.10;;;;;;5019871;28;20531;-45
2021/04/15 11:10:36;;;;;;;3.50;3.20;;;16.60;33.50;;;;;;5016454;28;20436;-45
2021/04/15 11:13:25;;;;;;;4.37;3.40;;;16.60;33.30;;;;;;5026140;28;20440;-47
2021/04/15 11:15:57;;;;;;;3.27;2.77;;;16.40;34.30;;;;;;5014524;28;20543;-49
2021/04/15 11:18:29;;;;;;;2.80;2.60;;;16.80;34.60;;;;;;5019414;28;20476;-46
2021/04/15 11:21:13;;;;;;;3.30;2.80;;;17.10;33.40;;;;;;5019410;28;20462;-48
2021/04/15 11:23:38;;;;;;;4.83;3.20;;;17.10;33.70;;;;;;5026134;28;20432;-47
2021/04/15 11:26:29;;;;;;;2.50;2.20;;;17.20;33.10;;;;;;5020201;28;20442;-48
2021/04/15 11:28:59;;;;;;;4.33;2.97;;;17.50;32.70;;;;;;5021206;28;20205;-44
2021/04/15 11:31:37;;;;;;;3.00;2.80;;;17.50;32.30;;;;;;5024865;28;20435;-43
2021/04/15 11:34:08;;;;;;;3.07;2.77;;;17.70;31.70;;;;;;5022526;28;20478;-44
2021/04/15 11:36:38;;;;;;;2.80;2.30;;;18.10;31.60;;;;;;5030691;28;20805;-48
2021/04/15 11:39:03;;;;;;;4.80;2.70;;;18.20;30.80;;;;;;5021952;28;20450;-47
2021/04/15 11:41:32;;;;;;;5.00;3.60;;;18.20;31.10;;;;;;5024706;28;20515;-44
2021/04/15 11:44:23;;;;;;;3.20;2.53;;;18.50;31.30;;;;;;5023479;28;20277;-47
2021/04/15 11:46:51;;;;;;;3.23;2.60;;;18.80;31.90;;;;;;5028344;28;20547;-47
2021/04/15 11:49:20;;;;;;;3.33;2.37;;;19.30;31.40;;;;;;5022303;28;20439;-49
2021/04/15 11:52:19;;;;;;;3.23;2.93;;;19.60;28.80;;;;;;5019575;28;21033;-46
2021/04/15 11:54:50;;;;;;;4.60;3.03;;;20.00;30.00;;;;;;5027926;28;21137;-48
2021/04/15 11:57:19;;;;;;;2.87;2.37;;;20.00;27.00;;;;;;5016399;28;20512;-48
2021/04/15 12:00:02;;;;;;;4.23;2.83;;;20.10;29.60;;;;;;5025572;28;20834;-49
2021/04/15 12:02:57;;;;;;;3.40;2.80;;;20.20;28.60;;;;;;5022617;28;20490;-45
2021/04/15 12:05:29;;;;;;;4.93;2.53;;;19.90;28.20;;;;;;5024866;28;20863;-47
2021/04/15 12:08:22;;;;;;;3.30;3.00;;;19.30;27.40;;;;;;5019690;28;20447;-47
2021/04/15 12:11:09;;;;;;;3.60;2.60;;;18.70;26.40;;;;;;5031377;28;20436;-46
2021/04/15 12:13:46;;;;;;;3.30;3.00;;;18.30;27.00;;;;;;5022970;28;20447;-45
2021/04/15 12:16:27;;;;;;;2.97;2.67;;;18.20;28.50;;;;;;5020855;28;20969;-48
2021/04/15 12:19:02;;;;;;;2.80;2.53;;;18.20;28.50;;;;;;5029713;28;20471;-44
2021/04/15 12:21:43;;;;;;;2.10;2.00;;;18.10;28.90;;;;;;5036297;28;20484;-46
2021/04/15 12:24:23;;;;;;;5.63;3.27;;;18.00;28.60;;;;;;5026934;28;20459;-45
2021/04/15 12:27:04;;;;;;;2.37;2.00;;;18.00;28.10;;;;;;5024688;28;20482;-46
2021/04/15 12:29:45;;;;;;;2.57;2.37;;;17.90;28.70;;;;;;5030865;28;20514;-46
2021/04/15 12:32:48;;;;;;;3.20;2.27;;;18.10;27.80;;;;;;5026648;28;20518;-44
2021/04/15 12:35:42;;;;;;;2.67;2.47;;;18.10;28.90;;;;;;5025569;28;20845;-45
2021/04/15 12:38:42;;;;;;;3.10;2.80;;;18.00;27.40;;;;;;5023842;28;20498;-43
2021/04/15 12:41:10;;;;;;;3.47;3.20;;;18.10;29.40;;;;;;5011160;28;20817;-46
2021/04/15 12:44:00;;;;;;;2.53;2.13;;;18.50;26.80;;;;;;5018360;28;20608;-42
2021/04/15 12:46:26;;;;;;;3.13;2.73;;;18.80;27.90;;;;;;5024357;28;20879;-43
2021/04/15 12:48:55;;;;;;;2.70;2.50;;;19.00;26.90;;;;;;5023485;28;20446;-46
2021/04/15 12:51:43;;;;;;;3.10;2.87;;;18.90;26.40;;;;;;5026128;28;20189;-45
2021/04/15 12:54:14;;;;;;;3.17;2.87;;;18.80;26.10;;;;;;5020062;28;20819;-43
2021/04/15 12:56:41;;;;;;;3.80;2.53;;;18.70;30.00;;;;;;5031201;28;20432;-42
2021/04/15 12:59:09;;;;;;;2.53;2.33;;;18.50;32.00;;;;;;5018960;28;20436;-44
2021/04/15 13:01:38;;;;;;;1.70;1.60;;;18.50;31.10;;;;;;5020224;28;20455;-45
2021/04/15 13:04:37;;;;;;;2.20;2.00;;;18.40;31.00;;;;;;5023027;28;20440;-46
2021/04/15 13:07:03;;;;;;;2.90;2.60;;;18.20;30.50;;;;;;5009451;28;20456;-45
2021/04/15 13:09:33;;;;;;;2.83;2.27;;;18.50;30.00;;;;;;5016841;28;20432;-47
2021/04/15 13:11:59;;;;;;;2.10;2.00;;;18.70;29.90;;;;;;5013679;28;20196;-44
2021/04/15 13:14:41;;;;;;;1.90;1.80;;;18.80;29.40;;;;;;5002841;28;20503;-46
2021/04/15 13:17:10;;;;;;;3.10;2.50;;;19.30;30.30;;;;;;5022241;28;20436;-46
2021/04/15 13:19:50;;;;;;;2.70;2.50;;;19.50;29.40;;;;;;5028013;28;20498;-46
2021/04/15 13:22:19;;;;;;;3.07;2.87;;;19.60;28.10;;;;;;5022050;28;20433;-45
2021/04/15 13:24:47;;;;;;;2.93;2.70;;;19.70;27.70;;;;;;5023746;28;20809;-47
2021/04/15 13:27:35;;;;;;;3.07;2.53;;;19.50;27.60;;;;;;5012795;28;20524;-44
2021/04/15 13:30:19;;;;;;;5.33;2.57;;;19.00;28.50;;;;;;5017227;28;20482;-42
2021/04/15 13:33:08;;;;;;;3.17;2.90;;;18.80;29.00;;;;;;5023112;28;20987;-43
2021/04/15 13:35:49;;;;;;;3.73;3.37;;;18.90;28.50;;;;;;5022255;28;20579;-42
2021/04/15 13:38:42;;;;;;;3.33;3.00;;;19.00;28.00;;;;;;5027986;28;20523;-47
2021/04/15 13:41:22;;;;;;;1.63;1.53;;;19.10;28.40;;;;;;5021877;28;20440;-46
2021/04/15 13:43:50;;;;;;;3.00;2.70;;;19.30;29.10;;;;;;5022880;28;20474;-44
2021/04/15 13:46:24;;;;;;;3.57;3.17;;;19.30;28.80;;;;;;5029120;28;20519;-43
2021/04/15 13:49:09;;;;;;;3.30;3.00;;;18.80;27.70;;;;;;5030820;28;20427;-46
2021/04/15 13:51:53;;;;;;;3.10;2.90;;;18.30;28.70;;;;;;5027845;28;20774;-46